METAR Analyzer

一覧表示

Hello, Guest. (Login)

CYYZ/YYZ  -  トロント・ピアソン

観測日時
2020-10-25 12:00 (UTC) (66分前)
気温
2
露点
-1
湿数
3
相対湿度
80.5%
QNH
1025.4hPa
推定現地気圧
1004.6hPa
推定海面気圧
1026.4hPa
体感温度
-7.7
(無風時)
6.1
HI
0.4
気温前日比
-3
体感温度前日比
+0.1
HI前日比
-3.1
水平視程
>15SM
鉛直視程
データなし
雲底高度
20000ft AGL
V/I
VMC (VFR)
RVR
No RVR data
卓越風
5kt from 60°
ガスト
No gust
降水
報告なし
その他の天気
報告なし
少しの(1/8) 層積雲 @ 2000ft AGL / 散在する(4/8) 高積雲 @ 16000ft AGL / 隙間のある(2/8) 巻雲 @ 20000ft AGL

CYYZ 251200Z 06005KT 15SM FEW020 SCT160 BKN200 02/M01 A3028 RMK SC1AC4CI2 SC TR SLP263

CYOW/YOW  -  オタワ・マクドナルド・カルティエ

観測日時
2020-10-25 12:00 (UTC) (66分前)
気温
-1
露点
-4
湿数
3
相対湿度
80%
QNH
1027.4hPa
推定現地気圧
1013.5hPa
推定海面気圧
1028.2hPa
体感温度
-13.4
(無風時)
3.6
HI
-3
気温前日比
-5
体感温度前日比
-1.9
HI前日比
-5.6
水平視程
>15SM
鉛直視程
データなし
雲底高度
22000ft AGL
V/I
VMC (VFR)
RVR
No RVR data
卓越風
7kt from 10°
ガスト
No gust
降水
報告なし
その他の天気
報告なし
隙間のある(5/8) 巻積雲 @ 22000ft AGL

CYOW 251200Z 01007KT 15SM BKN220 M01/M04 A3034 RMK CC5 SLP280

CYUL/YUL  -  モントリオール・ピエール・エリオット・トルドー

観測日時
2020-10-25 12:00 (UTC) (66分前)
気温
1
露点
-5
湿数
6
相対湿度
64.2%
QNH
1027.1hPa
推定現地気圧
1022.7hPa
推定海面気圧
1027.3hPa
体感温度
-9.6
(無風時)
5.8
HI
-1.2
気温前日比
-9
体感温度前日比
-7.1
HI前日比
-10.5
水平視程
>15SM
鉛直視程
データなし
雲底高度
24000ft AGL
V/I
VMC (VFR)
RVR
No RVR data
卓越風
7kt from 340°
ガスト
No gust
降水
報告なし
その他の天気
報告なし
少しの(2/8) 巻積雲 @ 21000ft AGL / 隙間のある(4/8) 巻雲 @ 24000ft AGL

CYUL 251200Z 34007KT 15SM FEW210 BKN240 01/M05 A3033 RMK CC2CI4 SLP272

CYVR/YVR  -  バンクーバー

観測日時
2020-10-25 12:00 (UTC) (66分前)
気温
1
露点
-10
湿数
11
相対湿度
43.6%
QNH
1035.6hPa
推定現地気圧
1035.1hPa
推定海面気圧
1035.6hPa
体感温度
-7.2
(無風時)
6.5
HI
-1.7
気温前日比
-1
体感温度前日比
-2.7
HI前日比
-1.9
水平視程
>20SM
鉛直視程
データなし
雲底高度
データなし
V/I
判定不可
RVR
No RVR data
卓越風
6kt from 80°
ガスト
No gust
降水
報告なし
その他の天気
快晴
報告なし

CYVR 251200Z 08006KT 20SM SKC 01/M10 A3058 RMK SLP356

5.3msec